Commit Graph
100 Commits
Author SHA1 Message Date
GeorgeSG 72e34f6ab8 Update to use latest folder-card options 2020-04-18 18:16:55 +03:00
GeorgeSG 7e7333cc34 Automate Sonos for TV 2020-04-18 16:47:45 +03:00
GeorgeSG ddd4db1ecc Plex on TV automations 2020-04-18 16:31:45 +03:00
GeorgeSG 72e7538ee6 Tweak lights turn on time 2020-04-18 13:16:55 +03:00
GeorgeSG 983ee5380a Basic night time light automation 2020-04-18 13:01:37 +03:00
GeorgeSG 5e617be286 Drop light_ prefix in filenames 2020-04-18 12:32:47 +03:00
GeorgeSG 99a8a49365 Fix file name typoo 2020-04-18 12:32:01 +03:00
GeorgeSG cfa8e399b8 Refactor lighting module 2020-04-18 12:29:31 +03:00
GeorgeSG 04f927d7ce Move motion sensor 2 to hallway 2020-04-18 12:26:31 +03:00
GeorgeSG d886929d7d Basic light color adjustment based on time 2020-04-18 12:18:17 +03:00
GeorgeSG 3f87ac5a05 Remove aftership 2020-04-18 11:56:31 +03:00
GeorgeSG fbdac464f9 Show only errors from loader 2020-04-18 11:56:08 +03:00
GeorgeSG cdb11fa491 Update screenshots 2020-04-18 10:38:42 +03:00
GeorgeSG 0c57fced00 gitignore .pip_progress 2020-04-18 10:30:22 +03:00
GeorgeSG e3a019dd5c Remove .pip_progress 2020-04-18 10:29:47 +03:00
GeorgeSG c20e836ddf 0.108.6 2020-04-18 10:28:38 +03:00
GeorgeSG 9fb5712bf2 Re-enable camera motion detection 2020-04-18 10:04:40 +03:00
GeorgeSG c4154682a3 0.108.5 2020-04-17 20:09:56 +03:00
GeorgeSG 339bcf4d22 Remove randi automation from system dashboard 2020-04-17 18:24:15 +03:00
GeorgeSG 473fb554be Fix tuya startup script 2020-04-17 18:23:03 +03:00
GeorgeSG 27eb5b94eb Add new lights to floorplan 2020-04-17 18:07:14 +03:00
GeorgeSG 0e9a7b5297 Remove randi from UI 2020-04-17 17:59:18 +03:00
GeorgeSG 9091d6c6b8 Add new lights. Rearrange lights 2020-04-17 17:59:08 +03:00
GeorgeSG 2138d03ea7 Remove randi sensor 2020-04-17 17:44:12 +03:00
GeorgeSG 3e31ef9e9e Remove obsolete notification 2020-04-17 17:43:56 +03:00
GeorgeSG 12eedc45e1 Disable amcrest motion sensor - broken in 0.108.1 2020-04-09 12:16:13 +03:00
GeorgeSG c2d1d8b93b 0.108.1 2020-04-09 10:48:22 +03:00
GeorgeSG 951570b07a Fix randi automation 2020-04-07 19:38:33 +03:00
GeorgeSG 15d2237978 Don't ping Randi as often 2020-04-07 00:30:03 +03:00
GeorgeSG cfc135a21a Don't join sonoses while sleeping 2020-04-06 23:52:22 +03:00
GeorgeSG 63449d922b Use sonos recoverable to make snapshots 2020-04-06 23:48:16 +03:00
GeorgeSG c9d122b363 Add volume_level to script.say. Adjust in alarm 2020-04-06 23:48:07 +03:00
GeorgeSG 85e303b08a Update Randi 2020-04-06 20:24:46 +03:00
GeorgeSG 07b529e78e Fix typo 2020-04-06 20:24:32 +03:00
GeorgeSG 7c05344509 More Sonos automations 2020-04-06 01:00:08 +03:00
GeorgeSG 5ac4b12a42 Add randi sensor 2020-04-06 01:00:03 +03:00
GeorgeSG 4c20f3cc28 Use tuya scene 2020-04-05 17:04:53 +03:00
GeorgeSG 84778eb77b Customize sonos names 2020-04-04 20:34:58 +03:00
GeorgeSG 2468fca619 tweak nvidia shield 2020-04-04 20:28:52 +03:00
GeorgeSG 5cb9ed1c83 Add twitch controls. Improve TV and Shield 2020-04-04 20:02:33 +03:00
GeorgeSG 929c85bdf8 Wake up time based on holidays 2020-04-04 16:46:46 +03:00
GeorgeSG f6709faab6 Dashboard updates 2020-04-04 15:57:02 +03:00
GeorgeSG cab92d4553 Tweak routines 2020-04-04 15:49:15 +03:00
GeorgeSG e6b429b9d6 Brita script to pour water 2020-04-04 15:45:54 +03:00
GeorgeSG 933ff7511d Update dashboards 2020-04-04 15:30:43 +03:00
GeorgeSG 431c68c00f Add names 2020-04-04 14:42:05 +03:00
GeorgeSG 6984782512 Remove sonos leader for now 2020-04-04 14:37:24 +03:00
GeorgeSG 652f2920c8 Fireplace 2020-04-04 14:27:43 +03:00
GeorgeSG 849941bbe7 Turn on entrance lights during wake up 2020-04-04 13:09:41 +03:00
GeorgeSG e0a014285c bring the header back to top 2020-04-04 12:57:33 +03:00
GeorgeSG 0d54100031 More button styles 2020-04-04 12:17:37 +03:00
GeorgeSG 42c58060ba Change button styles 2020-04-04 12:17:13 +03:00
GeorgeSG 7642a5e11e Add alarm to tablet view 2020-04-04 12:07:03 +03:00
GeorgeSG 3cf4242416 Add light popup card for ceiling lights in tablet view 2020-04-04 11:57:40 +03:00
GeorgeSG a2d868ef4c Improve sonos on tablet dashboard 2020-03-31 22:56:24 +03:00
GeorgeSG 48ab993269 Remove inspirational quotes 2020-03-31 22:10:49 +03:00
GeorgeSG e1de50b0ec Add delay before morning routine to allow stop to work 2020-03-31 22:02:00 +03:00
GeorgeSG ce41234b40 Improve networking dashboard with charts 2020-03-31 19:43:13 +03:00
GeorgeSG 94df08be2e Update floorplan ui 2020-03-30 20:47:18 +03:00
GeorgeSG 49349ac3ed Add button to reload themes 2020-03-30 02:20:53 +03:00
GeorgeSG 647c69e9ef Use bha custom icons 2020-03-29 23:58:19 +03:00
GeorgeSG cd8b81170c Update custom header configs. Disable map 2020-03-29 23:06:34 +03:00
GeorgeSG 7fbb7fc5fd Re-enable histoyr 2020-03-29 21:41:53 +03:00
GeorgeSG b582217024 Add iframe panels. Disable logbook and history panels for now 2020-03-29 20:05:23 +03:00
GeorgeSG e4af3cdace Night mode override for Floorplan UI 2020-03-29 18:33:36 +03:00
GeorgeSG 956661c2b0 Add Titanium to floorplan UI 2020-03-29 18:04:43 +03:00
GeorgeSG 8c967463e1 Add all lights to floorplan UI 2020-03-29 18:01:32 +03:00
GeorgeSG f60cb51a7d Add window suggestion to waking up routine 2020-03-29 16:44:19 +03:00
GeorgeSG a1d103923d Modernize templates 2020-03-29 16:41:50 +03:00
GeorgeSG 9a94eaf78f Change system dashboard icon 2020-03-29 16:37:19 +03:00
GeorgeSG bff9305881 Update activity badge 2020-03-29 16:15:29 +03:00
GeorgeSG 33e9ed48b1 Tweak labels 2020-03-29 16:09:37 +03:00
GeorgeSG aad7ea9ae1 Remove header toggles from light dashboard 2020-03-29 14:39:07 +03:00
GeorgeSG 89bdf9cfb5 Fix new lights in dashboards 2020-03-29 14:36:43 +03:00
GeorgeSG b91ad2fc0c Workaround Tuya lag by using Tuya scenes 2020-03-29 14:31:36 +03:00
GeorgeSG 0e232c23dd Suppress Waze warnings 2020-03-29 11:58:02 +03:00
GeorgeSG 5567160830 Remove unused components 2020-03-29 11:50:19 +03:00
GeorgeSG 3382f55372 Tweak alarm routine 2020-03-29 10:45:56 +03:00
GeorgeSG 388fdba16f Use folder-card. Refactor youtube play scripts 2020-03-29 02:32:15 +02:00
GeorgeSG 8403e44659 Initial implementation of tablet dashboard 2020-03-28 20:03:22 +02:00
GeorgeSG 68866a7cbd Implement home dashboard sensors as buttons 2020-03-28 15:27:05 +02:00
GeorgeSG 548d5257f5 Add button-card. Use for lights on home dashboard 2020-03-28 15:23:08 +02:00
GeorgeSG 9faf505327 Update telegram status 2020-03-28 13:05:37 +02:00
GeorgeSG b142c779a3 Sort resources 2020-03-28 12:58:45 +02:00
GeorgeSG 2743c8e156 Initial sonos recoverable implementation 2020-03-28 12:52:22 +02:00
GeorgeSG bfbd7a5f03 Fix icon 2020-03-28 12:37:26 +02:00
GeorgeSG 97380d47af FIx minor UI issues 2020-03-28 12:33:59 +02:00
GeorgeSG 14631b935b Add Lights view 2020-03-28 12:24:54 +02:00
GeorgeSG 81bc42fa53 Do speedtests more often 2020-03-28 12:14:03 +02:00
GeorgeSG 84e146e292 Move configs to network module 2020-03-28 12:06:03 +02:00
GeorgeSG c0ca531e9a Fix config order 2020-03-28 11:50:25 +02:00
GeorgeSG 6329032156 Move config into modules 2020-03-28 11:43:18 +02:00
GeorgeSG 7b5d2c30d0 Refactor modules - use folders, add climate 2020-03-28 11:22:29 +02:00
GeorgeSG c36e263a16 Add speed test 2020-03-28 10:31:28 +02:00
GeorgeSG 818edb026c Initial Titanium integration 2020-03-28 04:02:32 +02:00
GeorgeSG d200360d2d Reorder automations 2020-03-28 03:54:24 +02:00
GeorgeSG 878566f56a Use better icon 2020-03-28 03:54:10 +02:00
GeorgeSG 38b12d0f11 Initial version of alarm clock 2020-03-28 02:24:43 +02:00
GeorgeSG 187e376b53 Change bathroom view icon 2020-03-28 02:14:04 +02:00
GeorgeSG d772ce208a Initial brita filter implementation 2020-03-28 02:13:55 +02:00